sensor_id;sensor_type;location;lat;lon;timestamp;P1;durP1;ratioP1;P2;durP2;ratioP2
4980;SDS011;2507;50.392;7.482;2023-08-21T00:01:55;12.77;;;11.77;;
4980;SDS011;2507;50.392;7.482;2023-08-21T00:04:20;13.73;;;12.63;;
4980;SDS011;2507;50.392;7.482;2023-08-21T00:06:45;13.67;;;12.57;;
4980;SDS011;2507;50.392;7.482;2023-08-21T00:09:11;14.13;;;12.83;;
4980;SDS011;2507;50.392;7.482;2023-08-21T00:11:36;14.97;;;13.63;;
4980;SDS011;2507;50.392;7.482;2023-08-21T00:14:02;14.40;;;13.20;;
4980;SDS011;2507;50.392;7.482;2023-08-21T00:16:27;13.50;;;12.20;;
4980;SDS011;2507;50.392;7.482;2023-08-21T00:18:53;14.03;;;12.83;;
4980;SDS011;2507;50.392;7.482;2023-08-21T00:21:19;12.93;;;11.83;;
4980;SDS011;2507;50.392;7.482;2023-08-21T00:23:45;14.40;;;12.90;;
4980;SDS011;2507;50.392;7.482;2023-08-21T00:26:11;13.40;;;12.30;;
4980;SDS011;2507;50.392;7.482;2023-08-21T00:28:36;14.27;;;13.10;;
4980;SDS011;2507;50.392;7.482;2023-08-21T00:31:02;14.47;;;13.27;;
4980;SDS011;2507;50.392;7.482;2023-08-21T00:33:30;14.97;;;13.77;;
4980;SDS011;2507;50.392;7.482;2023-08-21T00:35:56;13.37;;;12.20;;
4980;SDS011;2507;50.392;7.482;2023-08-21T00:38:21;18.33;;;14.57;;
4980;SDS011;2507;50.392;7.482;2023-08-21T00:40:46;14.87;;;13.47;;
4980;SDS011;2507;50.392;7.482;2023-08-21T00:43:12;15.10;;;13.63;;
4980;SDS011;2507;50.392;7.482;2023-08-21T00:45:37;14.40;;;13.10;;
4980;SDS011;2507;50.392;7.482;2023-08-21T00:48:06;15.03;;;13.57;;
4980;SDS011;2507;50.392;7.482;2023-08-21T00:50:31;13.53;;;12.53;;
4980;SDS011;2507;50.392;7.482;2023-08-21T00:52:57;15.17;;;13.77;;
4980;SDS011;2507;50.392;7.482;2023-08-21T00:55:22;14.50;;;13.27;;
4980;SDS011;2507;50.392;7.482;2023-08-21T00:57:47;13.70;;;12.50;;
4980;SDS011;2507;50.392;7.482;2023-08-21T01:00:13;15.07;;;13.67;;
4980;SDS011;2507;50.392;7.482;2023-08-21T01:02:38;14.70;;;13.27;;
4980;SDS011;2507;50.392;7.482;2023-08-21T01:05:04;15.10;;;13.70;;
4980;SDS011;2507;50.392;7.482;2023-08-21T01:07:30;15.70;;;14.40;;
4980;SDS011;2507;50.392;7.482;2023-08-21T01:10:03;17.07;;;15.57;;
4980;SDS011;2507;50.392;7.482;2023-08-21T01:12:44;15.93;;;14.60;;
4980;SDS011;2507;50.392;7.482;2023-08-21T01:15:20;16.27;;;14.43;;
4980;SDS011;2507;50.392;7.482;2023-08-21T01:17:46;16.20;;;14.90;;
4980;SDS011;2507;50.392;7.482;2023-08-21T01:20:12;15.87;;;14.37;;
4980;SDS011;2507;50.392;7.482;2023-08-21T01:22:40;17.90;;;16.23;;
4980;SDS011;2507;50.392;7.482;2023-08-21T01:25:06;15.60;;;14.40;;
4980;SDS011;2507;50.392;7.482;2023-08-21T01:27:34;16.70;;;15.00;;
4980;SDS011;2507;50.392;7.482;2023-08-21T01:30:00;17.20;;;15.50;;
4980;SDS011;2507;50.392;7.482;2023-08-21T01:32:29;16.50;;;14.90;;
4980;SDS011;2507;50.392;7.482;2023-08-21T01:35:02;17.00;;;15.50;;
4980;SDS011;2507;50.392;7.482;2023-08-21T01:37:29;17.13;;;15.43;;
4980;SDS011;2507;50.392;7.482;2023-08-21T01:39:57;17.63;;;15.67;;
4980;SDS011;2507;50.392;7.482;2023-08-21T01:42:23;17.07;;;15.10;;
4980;SDS011;2507;50.392;7.482;2023-08-21T01:44:48;16.80;;;15.13;;
4980;SDS011;2507;50.392;7.482;2023-08-21T01:47:13;15.97;;;14.43;;
4980;SDS011;2507;50.392;7.482;2023-08-21T01:49:39;15.97;;;14.67;;
4980;SDS011;2507;50.392;7.482;2023-08-21T01:52:04;16.10;;;14.67;;
4980;SDS011;2507;50.392;7.482;2023-08-21T01:54:29;17.10;;;15.53;;
4980;SDS011;2507;50.392;7.482;2023-08-21T01:56:55;18.33;;;16.63;;
4980;SDS011;2507;50.392;7.482;2023-08-21T01:59:21;18.90;;;17.10;;
4980;SDS011;2507;50.392;7.482;2023-08-21T02:01:46;18.83;;;17.13;;
4980;SDS011;2507;50.392;7.482;2023-08-21T02:04:11;18.03;;;16.50;;
4980;SDS011;2507;50.392;7.482;2023-08-21T02:06:37;17.07;;;15.67;;
4980;SDS011;2507;50.392;7.482;2023-08-21T02:09:02;16.53;;;14.83;;
4980;SDS011;2507;50.392;7.482;2023-08-21T02:11:27;18.00;;;16.30;;
4980;SDS011;2507;50.392;7.482;2023-08-21T02:13:52;17.80;;;16.17;;
4980;SDS011;2507;50.392;7.482;2023-08-21T02:16:18;17.53;;;15.90;;
4980;SDS011;2507;50.392;7.482;2023-08-21T02:18:43;16.57;;;15.27;;
4980;SDS011;2507;50.392;7.482;2023-08-21T02:21:08;17.13;;;15.60;;
4980;SDS011;2507;50.392;7.482;2023-08-21T02:23:34;20.93;;;17.83;;
4980;SDS011;2507;50.392;7.482;2023-08-21T02:25:59;18.80;;;17.00;;
4980;SDS011;2507;50.392;7.482;2023-08-21T02:28:24;17.97;;;16.27;;
4980;SDS011;2507;50.392;7.482;2023-08-21T02:30:49;18.40;;;16.70;;
4980;SDS011;2507;50.392;7.482;2023-08-21T02:33:15;17.10;;;15.60;;
4980;SDS011;2507;50.392;7.482;2023-08-21T02:35:40;16.97;;;15.40;;
4980;SDS011;2507;50.392;7.482;2023-08-21T02:38:05;17.87;;;16.37;;
4980;SDS011;2507;50.392;7.482;2023-08-21T02:40:31;20.77;;;18.70;;
4980;SDS011;2507;50.392;7.482;2023-08-21T02:42:56;17.97;;;16.40;;
4980;SDS011;2507;50.392;7.482;2023-08-21T02:45:22;18.73;;;17.03;;
4980;SDS011;2507;50.392;7.482;2023-08-21T02:47:47;18.80;;;17.20;;
4980;SDS011;2507;50.392;7.482;2023-08-21T02:50:12;18.70;;;16.90;;
4980;SDS011;2507;50.392;7.482;2023-08-21T02:52:38;19.80;;;17.87;;
4980;SDS011;2507;50.392;7.482;2023-08-21T02:55:03;19.23;;;17.23;;
4980;SDS011;2507;50.392;7.482;2023-08-21T02:57:30;18.80;;;17.03;;
4980;SDS011;2507;50.392;7.482;2023-08-21T02:59:55;18.70;;;16.80;;
4980;SDS011;2507;50.392;7.482;2023-08-21T03:02:21;18.63;;;16.93;;
4980;SDS011;2507;50.392;7.482;2023-08-21T03:04:47;18.47;;;16.87;;
4980;SDS011;2507;50.392;7.482;2023-08-21T03:07:13;20.47;;;18.57;;
4980;SDS011;2507;50.392;7.482;2023-08-21T03:09:39;19.53;;;17.70;;
4980;SDS011;2507;50.392;7.482;2023-08-21T03:12:05;19.23;;;17.47;;
4980;SDS011;2507;50.392;7.482;2023-08-21T03:14:31;22.13;;;16.87;;
4980;SDS011;2507;50.392;7.482;2023-08-21T03:16:56;19.07;;;17.07;;
4980;SDS011;2507;50.392;7.482;2023-08-21T03:19:22;17.27;;;15.50;;
4980;SDS011;2507;50.392;7.482;2023-08-21T03:21:47;18.47;;;16.73;;
4980;SDS011;2507;50.392;7.482;2023-08-21T03:24:12;18.90;;;17.20;;
4980;SDS011;2507;50.392;7.482;2023-08-21T03:26:37;18.53;;;16.87;;
4980;SDS011;2507;50.392;7.482;2023-08-21T03:29:03;18.13;;;16.53;;
4980;SDS011;2507;50.392;7.482;2023-08-21T03:31:29;18.50;;;16.80;;
4980;SDS011;2507;50.392;7.482;2023-08-21T03:33:54;18.50;;;16.90;;
4980;SDS011;2507;50.392;7.482;2023-08-21T03:36:20;19.00;;;17.23;;
4980;SDS011;2507;50.392;7.482;2023-08-21T03:38:45;19.17;;;17.17;;
4980;SDS011;2507;50.392;7.482;2023-08-21T03:41:11;19.00;;;17.30;;
4980;SDS011;2507;50.392;7.482;2023-08-21T03:43:36;18.30;;;16.80;;
4980;SDS011;2507;50.392;7.482;2023-08-21T03:46:01;18.23;;;16.53;;
4980;SDS011;2507;50.392;7.482;2023-08-21T03:48:27;17.83;;;16.10;;
4980;SDS011;2507;50.392;7.482;2023-08-21T03:50:52;18.37;;;16.77;;
4980;SDS011;2507;50.392;7.482;2023-08-21T03:53:18;17.03;;;15.23;;
4980;SDS011;2507;50.392;7.482;2023-08-21T03:55:43;18.60;;;16.93;;
4980;SDS011;2507;50.392;7.482;2023-08-21T03:58:08;16.57;;;15.27;;
4980;SDS011;2507;50.392;7.482;2023-08-21T04:00:34;18.40;;;16.17;;
4980;SDS011;2507;50.392;7.482;2023-08-21T04:02:59;19.33;;;17.73;;
4980;SDS011;2507;50.392;7.482;2023-08-21T04:05:24;18.20;;;16.60;;
4980;SDS011;2507;50.392;7.482;2023-08-21T04:07:49;18.70;;;17.03;;
4980;SDS011;2507;50.392;7.482;2023-08-21T04:10:15;19.53;;;17.83;;
4980;SDS011;2507;50.392;7.482;2023-08-21T04:12:41;18.30;;;16.60;;
4980;SDS011;2507;50.392;7.482;2023-08-21T04:15:07;20.30;;;18.60;;
4980;SDS011;2507;50.392;7.482;2023-08-21T04:17:32;21.80;;;19.70;;
4980;SDS011;2507;50.392;7.482;2023-08-21T04:19:58;21.57;;;19.47;;
4980;SDS011;2507;50.392;7.482;2023-08-21T04:22:23;21.37;;;19.47;;
4980;SDS011;2507;50.392;7.482;2023-08-21T04:24:49;20.70;;;18.90;;
4980;SDS011;2507;50.392;7.482;2023-08-21T04:27:14;23.87;;;20.50;;
4980;SDS011;2507;50.392;7.482;2023-08-21T04:29:39;19.90;;;17.80;;
4980;SDS011;2507;50.392;7.482;2023-08-21T04:32:05;20.83;;;18.67;;
4980;SDS011;2507;50.392;7.482;2023-08-21T04:34:34;22.40;;;20.00;;
4980;SDS011;2507;50.392;7.482;2023-08-21T04:37:00;22.40;;;19.70;;
4980;SDS011;2507;50.392;7.482;2023-08-21T04:39:25;19.97;;;17.93;;
4980;SDS011;2507;50.392;7.482;2023-08-21T04:41:51;19.77;;;17.67;;
4980;SDS011;2507;50.392;7.482;2023-08-21T04:44:16;20.97;;;18.27;;
4980;SDS011;2507;50.392;7.482;2023-08-21T04:46:42;23.03;;;17.97;;
4980;SDS011;2507;50.392;7.482;2023-08-21T04:49:07;19.70;;;18.00;;
4980;SDS011;2507;50.392;7.482;2023-08-21T04:51:33;19.97;;;17.67;;
4980;SDS011;2507;50.392;7.482;2023-08-21T04:53:58;19.43;;;17.60;;
4980;SDS011;2507;50.392;7.482;2023-08-21T04:56:24;17.40;;;15.90;;
4980;SDS011;2507;50.392;7.482;2023-08-21T04:58:50;19.47;;;17.63;;
4980;SDS011;2507;50.392;7.482;2023-08-21T05:01:15;19.83;;;17.93;;
4980;SDS011;2507;50.392;7.482;2023-08-21T05:03:40;21.97;;;19.93;;
4980;SDS011;2507;50.392;7.482;2023-08-21T05:06:06;20.07;;;18.03;;
4980;SDS011;2507;50.392;7.482;2023-08-21T05:08:31;20.27;;;18.17;;
4980;SDS011;2507;50.392;7.482;2023-08-21T05:10:57;17.57;;;15.87;;
4980;SDS011;2507;50.392;7.482;2023-08-21T05:13:23;21.73;;;16.07;;
4980;SDS011;2507;50.392;7.482;2023-08-21T05:15:56;19.03;;;17.07;;
4980;SDS011;2507;50.392;7.482;2023-08-21T05:18:23;17.33;;;15.50;;
4980;SDS011;2507;50.392;7.482;2023-08-21T05:20:49;17.30;;;15.80;;
4980;SDS011;2507;50.392;7.482;2023-08-21T05:23:15;15.70;;;14.20;;
4980;SDS011;2507;50.392;7.482;2023-08-21T05:25:42;15.43;;;14.03;;
4980;SDS011;2507;50.392;7.482;2023-08-21T05:28:08;16.57;;;15.17;;
4980;SDS011;2507;50.392;7.482;2023-08-21T05:30:35;17.07;;;15.47;;
4980;SDS011;2507;50.392;7.482;2023-08-21T05:33:00;16.20;;;14.80;;
4980;SDS011;2507;50.392;7.482;2023-08-21T05:35:26;16.67;;;14.93;;
4980;SDS011;2507;50.392;7.482;2023-08-21T05:37:51;19.47;;;16.07;;
4980;SDS011;2507;50.392;7.482;2023-08-21T05:40:16;17.77;;;16.20;;
4980;SDS011;2507;50.392;7.482;2023-08-21T05:42:42;14.87;;;13.67;;
4980;SDS011;2507;50.392;7.482;2023-08-21T05:45:07;19.40;;;14.90;;
4980;SDS011;2507;50.392;7.482;2023-08-21T05:47:32;16.00;;;14.30;;
4980;SDS011;2507;50.392;7.482;2023-08-21T05:49:58;20.03;;;15.23;;
4980;SDS011;2507;50.392;7.482;2023-08-21T05:52:23;19.50;;;13.60;;
4980;SDS011;2507;50.392;7.482;2023-08-21T05:54:48;12.80;;;11.60;;
4980;SDS011;2507;50.392;7.482;2023-08-21T05:57:14;14.90;;;11.83;;
4980;SDS011;2507;50.392;7.482;2023-08-21T05:59:43;14.07;;;12.67;;
4980;SDS011;2507;50.392;7.482;2023-08-21T06:02:10;12.57;;;11.37;;
4980;SDS011;2507;50.392;7.482;2023-08-21T06:04:37;13.03;;;11.80;;
4980;SDS011;2507;50.392;7.482;2023-08-21T06:07:02;15.77;;;11.70;;
4980;SDS011;2507;50.392;7.482;2023-08-21T06:09:28;13.10;;;11.67;;
4980;SDS011;2507;50.392;7.482;2023-08-21T06:11:54;16.57;;;11.40;;
4980;SDS011;2507;50.392;7.482;2023-08-21T06:14:20;29.63;;;12.40;;
4980;SDS011;2507;50.392;7.482;2023-08-21T06:16:45;13.40;;;11.23;;
4980;SDS011;2507;50.392;7.482;2023-08-21T06:19:10;19.73;;;10.60;;
4980;SDS011;2507;50.392;7.482;2023-08-21T06:21:36;11.73;;;10.27;;
4980;SDS011;2507;50.392;7.482;2023-08-21T06:24:01;17.73;;;9.53;;
4980;SDS011;2507;50.392;7.482;2023-08-21T06:26:27;14.43;;;11.20;;
4980;SDS011;2507;50.392;7.482;2023-08-21T06:28:52;23.93;;;9.33;;
4980;SDS011;2507;50.392;7.482;2023-08-21T06:31:17;11.93;;;9.73;;
4980;SDS011;2507;50.392;7.482;2023-08-21T06:33:43;10.20;;;9.10;;
4980;SDS011;2507;50.392;7.482;2023-08-21T06:36:08;11.83;;;9.20;;
4980;SDS011;2507;50.392;7.482;2023-08-21T06:38:33;9.73;;;8.70;;
4980;SDS011;2507;50.392;7.482;2023-08-21T06:40:58;8.33;;;7.30;;
4980;SDS011;2507;50.392;7.482;2023-08-21T06:43:24;9.60;;;8.80;;
4980;SDS011;2507;50.392;7.482;2023-08-21T06:45:50;12.03;;;10.70;;
4980;SDS011;2507;50.392;7.482;2023-08-21T06:48:15;11.23;;;10.13;;
4980;SDS011;2507;50.392;7.482;2023-08-21T06:50:40;13.57;;;11.37;;
4980;SDS011;2507;50.392;7.482;2023-08-21T06:53:05;17.53;;;11.77;;
4980;SDS011;2507;50.392;7.482;2023-08-21T06:55:31;10.27;;;9.47;;
4980;SDS011;2507;50.392;7.482;2023-08-21T06:57:57;9.93;;;8.93;;
4980;SDS011;2507;50.392;7.482;2023-08-21T07:00:22;11.10;;;9.57;;
4980;SDS011;2507;50.392;7.482;2023-08-21T07:02:47;10.90;;;9.80;;
4980;SDS011;2507;50.392;7.482;2023-08-21T07:05:12;9.37;;;8.67;;
4980;SDS011;2507;50.392;7.482;2023-08-21T07:07:38;9.13;;;8.30;;
4980;SDS011;2507;50.392;7.482;2023-08-21T07:10:04;8.37;;;7.50;;
4980;SDS011;2507;50.392;7.482;2023-08-21T07:12:29;9.73;;;8.40;;
4980;SDS011;2507;50.392;7.482;2023-08-21T07:14:55;7.43;;;6.77;;
4980;SDS011;2507;50.392;7.482;2023-08-21T07:17:20;22.10;;;8.10;;
4980;SDS011;2507;50.392;7.482;2023-08-21T07:19:46;7.83;;;7.13;;
4980;SDS011;2507;50.392;7.482;2023-08-21T07:22:11;8.13;;;7.33;;
4980;SDS011;2507;50.392;7.482;2023-08-21T07:24:37;8.23;;;7.43;;
4980;SDS011;2507;50.392;7.482;2023-08-21T07:27:03;9.57;;;7.13;;
4980;SDS011;2507;50.392;7.482;2023-08-21T07:29:29;8.40;;;7.10;;
4980;SDS011;2507;50.392;7.482;2023-08-21T07:31:54;7.17;;;6.67;;
4980;SDS011;2507;50.392;7.482;2023-08-21T07:34:20;7.33;;;6.73;;
4980;SDS011;2507;50.392;7.482;2023-08-21T07:36:45;8.80;;;7.97;;
4980;SDS011;2507;50.392;7.482;2023-08-21T07:39:10;13.30;;;7.77;;
4980;SDS011;2507;50.392;7.482;2023-08-21T07:41:35;9.60;;;8.47;;
4980;SDS011;2507;50.392;7.482;2023-08-21T07:44:02;9.80;;;8.40;;
4980;SDS011;2507;50.392;7.482;2023-08-21T07:46:27;8.10;;;7.00;;
4980;SDS011;2507;50.392;7.482;2023-08-21T07:48:53;8.70;;;8.03;;
4980;SDS011;2507;50.392;7.482;2023-08-21T07:51:19;8.63;;;7.77;;
4980;SDS011;2507;50.392;7.482;2023-08-21T07:53:44;8.60;;;7.90;;
4980;SDS011;2507;50.392;7.482;2023-08-21T07:56:10;9.50;;;7.00;;
4980;SDS011;2507;50.392;7.482;2023-08-21T07:58:36;8.97;;;7.40;;
4980;SDS011;2507;50.392;7.482;2023-08-21T08:01:02;9.83;;;6.80;;
4980;SDS011;2507;50.392;7.482;2023-08-21T08:03:29;6.93;;;6.33;;
4980;SDS011;2507;50.392;7.482;2023-08-21T08:05:55;7.20;;;6.60;;
4980;SDS011;2507;50.392;7.482;2023-08-21T08:08:20;6.30;;;5.90;;
4980;SDS011;2507;50.392;7.482;2023-08-21T08:10:45;7.50;;;6.90;;
4980;SDS011;2507;50.392;7.482;2023-08-21T08:13:10;8.40;;;6.70;;
4980;SDS011;2507;50.392;7.482;2023-08-21T08:15:36;7.00;;;6.50;;
4980;SDS011;2507;50.392;7.482;2023-08-21T08:18:02;10.20;;;6.93;;
4980;SDS011;2507;50.392;7.482;2023-08-21T08:20:28;11.80;;;8.20;;
4980;SDS011;2507;50.392;7.482;2023-08-21T08:22:53;10.17;;;7.03;;
4980;SDS011;2507;50.392;7.482;2023-08-21T08:25:19;7.00;;;6.50;;
4980;SDS011;2507;50.392;7.482;2023-08-21T08:27:44;7.47;;;6.87;;
4980;SDS011;2507;50.392;7.482;2023-08-21T08:30:10;7.23;;;6.53;;
4980;SDS011;2507;50.392;7.482;2023-08-21T08:32:35;8.57;;;6.47;;
4980;SDS011;2507;50.392;7.482;2023-08-21T08:35:01;7.80;;;6.93;;
4980;SDS011;2507;50.392;7.482;2023-08-21T08:37:26;12.23;;;7.50;;
4980;SDS011;2507;50.392;7.482;2023-08-21T08:39:51;11.43;;;6.70;;
4980;SDS011;2507;50.392;7.482;2023-08-21T08:42:16;7.33;;;6.70;;
4980;SDS011;2507;50.392;7.482;2023-08-21T08:44:43;8.13;;;6.77;;
4980;SDS011;2507;50.392;7.482;2023-08-21T08:47:09;9.00;;;6.33;;
4980;SDS011;2507;50.392;7.482;2023-08-21T08:49:35;8.43;;;6.80;;
4980;SDS011;2507;50.392;7.482;2023-08-21T08:52:02;7.00;;;6.30;;
4980;SDS011;2507;50.392;7.482;2023-08-21T08:54:29;7.40;;;6.70;;
4980;SDS011;2507;50.392;7.482;2023-08-21T08:56:55;7.73;;;6.97;;
4980;SDS011;2507;50.392;7.482;2023-08-21T08:59:20;8.70;;;6.93;;
4980;SDS011;2507;50.392;7.482;2023-08-21T09:01:45;9.73;;;7.90;;
4980;SDS011;2507;50.392;7.482;2023-08-21T09:04:11;9.13;;;7.60;;
4980;SDS011;2507;50.392;7.482;2023-08-21T09:06:38;9.20;;;8.40;;
4980;SDS011;2507;50.392;7.482;2023-08-21T09:09:03;15.97;;;8.17;;
4980;SDS011;2507;50.392;7.482;2023-08-21T09:11:29;10.80;;;9.30;;
4980;SDS011;2507;50.392;7.482;2023-08-21T09:13:54;10.03;;;8.50;;
4980;SDS011;2507;50.392;7.482;2023-08-21T09:16:21;11.17;;;8.60;;
4980;SDS011;2507;50.392;7.482;2023-08-21T09:18:48;10.43;;;8.27;;
4980;SDS011;2507;50.392;7.482;2023-08-21T09:21:17;12.10;;;9.90;;
4980;SDS011;2507;50.392;7.482;2023-08-21T09:23:47;11.00;;;7.93;;
4980;SDS011;2507;50.392;7.482;2023-08-21T09:26:22;9.87;;;8.87;;
4980;SDS011;2507;50.392;7.482;2023-08-21T09:28:49;9.77;;;8.83;;
4980;SDS011;2507;50.392;7.482;2023-08-21T09:31:15;11.87;;;9.80;;
4980;SDS011;2507;50.392;7.482;2023-08-21T09:33:41;10.93;;;9.80;;
4980;SDS011;2507;50.392;7.482;2023-08-21T09:36:07;13.33;;;10.03;;
4980;SDS011;2507;50.392;7.482;2023-08-21T09:38:34;14.60;;;12.30;;
4980;SDS011;2507;50.392;7.482;2023-08-21T09:41:02;13.63;;;9.37;;
4980;SDS011;2507;50.392;7.482;2023-08-21T09:43:28;12.80;;;10.80;;
4980;SDS011;2507;50.392;7.482;2023-08-21T09:45:54;16.70;;;9.97;;
4980;SDS011;2507;50.392;7.482;2023-08-21T09:48:23;10.90;;;8.70;;
4980;SDS011;2507;50.392;7.482;2023-08-21T09:50:52;11.87;;;10.10;;
4980;SDS011;2507;50.392;7.482;2023-08-21T09:53:18;14.13;;;9.53;;
4980;SDS011;2507;50.392;7.482;2023-08-21T09:55:53;10.53;;;9.53;;
4980;SDS011;2507;50.392;7.482;2023-08-21T09:58:19;9.80;;;8.80;;
4980;SDS011;2507;50.392;7.482;2023-08-21T10:00:45;10.00;;;9.00;;
4980;SDS011;2507;50.392;7.482;2023-08-21T10:03:13;12.13;;;8.37;;
4980;SDS011;2507;50.392;7.482;2023-08-21T10:05:43;10.30;;;9.40;;
4980;SDS011;2507;50.392;7.482;2023-08-21T10:08:09;13.23;;;9.57;;
4980;SDS011;2507;50.392;7.482;2023-08-21T10:10:36;11.13;;;8.23;;
4980;SDS011;2507;50.392;7.482;2023-08-21T10:13:03;9.60;;;8.70;;
4980;SDS011;2507;50.392;7.482;2023-08-21T10:15:30;9.23;;;8.43;;
4980;SDS011;2507;50.392;7.482;2023-08-21T10:17:57;11.30;;;9.87;;
4980;SDS011;2507;50.392;7.482;2023-08-21T10:20:25;9.77;;;8.60;;
4980;SDS011;2507;50.392;7.482;2023-08-21T10:22:54;9.57;;;7.93;;
4980;SDS011;2507;50.392;7.482;2023-08-21T10:25:26;9.50;;;8.60;;
4980;SDS011;2507;50.392;7.482;2023-08-21T10:27:52;9.63;;;8.30;;
4980;SDS011;2507;50.392;7.482;2023-08-21T10:30:22;9.70;;;8.80;;
4980;SDS011;2507;50.392;7.482;2023-08-21T10:32:49;9.67;;;7.27;;
4980;SDS011;2507;50.392;7.482;2023-08-21T10:35:23;8.30;;;7.10;;
4980;SDS011;2507;50.392;7.482;2023-08-21T10:38:06;11.07;;;7.20;;
4980;SDS011;2507;50.392;7.482;2023-08-21T10:40:35;10.77;;;8.20;;
4980;SDS011;2507;50.392;7.482;2023-08-21T10:43:01;8.13;;;7.53;;
4980;SDS011;2507;50.392;7.482;2023-08-21T10:45:28;15.17;;;8.77;;
4980;SDS011;2507;50.392;7.482;2023-08-21T10:47:56;10.00;;;7.70;;
4980;SDS011;2507;50.392;7.482;2023-08-21T10:50:22;14.37;;;8.40;;
4980;SDS011;2507;50.392;7.482;2023-08-21T10:52:47;8.13;;;6.87;;
4980;SDS011;2507;50.392;7.482;2023-08-21T10:55:17;9.90;;;9.00;;
4980;SDS011;2507;50.392;7.482;2023-08-21T10:57:48;8.63;;;7.40;;
4980;SDS011;2507;50.392;7.482;2023-08-21T11:00:15;8.30;;;6.90;;
4980;SDS011;2507;50.392;7.482;2023-08-21T11:02:46;7.57;;;6.77;;
4980;SDS011;2507;50.392;7.482;2023-08-21T11:05:15;6.37;;;5.43;;
4980;SDS011;2507;50.392;7.482;2023-08-21T11:07:45;6.67;;;6.00;;
4980;SDS011;2507;50.392;7.482;2023-08-21T11:10:16;6.30;;;5.70;;
4980;SDS011;2507;50.392;7.482;2023-08-21T11:12:55;6.80;;;6.30;;
4980;SDS011;2507;50.392;7.482;2023-08-21T11:15:23;5.63;;;5.07;;
4980;SDS011;2507;50.392;7.482;2023-08-21T11:17:56;6.73;;;4.80;;
4980;SDS011;2507;50.392;7.482;2023-08-21T11:20:29;5.10;;;4.70;;
4980;SDS011;2507;50.392;7.482;2023-08-21T11:22:58;4.83;;;4.40;;
4980;SDS011;2507;50.392;7.482;2023-08-21T11:25:28;6.50;;;5.20;;
4980;SDS011;2507;50.392;7.482;2023-08-21T11:27:54;7.63;;;5.70;;
4980;SDS011;2507;50.392;7.482;2023-08-21T11:30:21;6.17;;;5.57;;
4980;SDS011;2507;50.392;7.482;2023-08-21T11:32:48;5.83;;;5.33;;
4980;SDS011;2507;50.392;7.482;2023-08-21T11:35:13;5.23;;;4.83;;
4980;SDS011;2507;50.392;7.482;2023-08-21T11:37:43;4.50;;;4.13;;
4980;SDS011;2507;50.392;7.482;2023-08-21T11:40:12;7.63;;;6.10;;
4980;SDS011;2507;50.392;7.482;2023-08-21T11:42:38;7.90;;;5.60;;
4980;SDS011;2507;50.392;7.482;2023-08-21T11:45:03;6.73;;;6.07;;
4980;SDS011;2507;50.392;7.482;2023-08-21T11:47:30;6.30;;;5.80;;
4980;SDS011;2507;50.392;7.482;2023-08-21T11:49:58;6.33;;;5.70;;
4980;SDS011;2507;50.392;7.482;2023-08-21T11:52:29;6.23;;;5.63;;
4980;SDS011;2507;50.392;7.482;2023-08-21T11:54:55;5.50;;;5.00;;
4980;SDS011;2507;50.392;7.482;2023-08-21T11:57:21;5.63;;;5.23;;
4980;SDS011;2507;50.392;7.482;2023-08-21T11:59:53;5.97;;;5.53;;
4980;SDS011;2507;50.392;7.482;2023-08-21T12:02:21;6.70;;;5.43;;
4980;SDS011;2507;50.392;7.482;2023-08-21T12:04:52;12.30;;;6.17;;
4980;SDS011;2507;50.392;7.482;2023-08-21T12:07:19;6.50;;;5.90;;
4980;SDS011;2507;50.392;7.482;2023-08-21T12:09:47;17.30;;;6.60;;
4980;SDS011;2507;50.392;7.482;2023-08-21T12:12:14;8.47;;;5.80;;
4980;SDS011;2507;50.392;7.482;2023-08-21T12:14:39;6.07;;;5.63;;
4980;SDS011;2507;50.392;7.482;2023-08-21T12:17:04;6.53;;;5.73;;
4980;SDS011;2507;50.392;7.482;2023-08-21T12:19:30;7.10;;;4.80;;
4980;SDS011;2507;50.392;7.482;2023-08-21T12:21:55;5.77;;;5.27;;
4980;SDS011;2507;50.392;7.482;2023-08-21T12:24:21;5.53;;;5.13;;
4980;SDS011;2507;50.392;7.482;2023-08-21T12:26:46;5.53;;;5.13;;
4980;SDS011;2507;50.392;7.482;2023-08-21T12:29:11;6.70;;;5.40;;
4980;SDS011;2507;50.392;7.482;2023-08-21T12:31:37;5.40;;;4.83;;
4980;SDS011;2507;50.392;7.482;2023-08-21T12:34:02;5.87;;;5.00;;
4980;SDS011;2507;50.392;7.482;2023-08-21T12:36:28;5.00;;;4.70;;
4980;SDS011;2507;50.392;7.482;2023-08-21T12:38:54;7.37;;;5.73;;
4980;SDS011;2507;50.392;7.482;2023-08-21T12:41:19;5.60;;;5.20;;
4980;SDS011;2507;50.392;7.482;2023-08-21T12:43:44;6.00;;;4.93;;
4980;SDS011;2507;50.392;7.482;2023-08-21T12:46:10;5.27;;;4.87;;
4980;SDS011;2507;50.392;7.482;2023-08-21T12:48:36;5.17;;;4.53;;
4980;SDS011;2507;50.392;7.482;2023-08-21T12:51:01;5.60;;;5.10;;
4980;SDS011;2507;50.392;7.482;2023-08-21T12:53:27;5.60;;;5.10;;
4980;SDS011;2507;50.392;7.482;2023-08-21T12:55:52;5.73;;;5.13;;
4980;SDS011;2507;50.392;7.482;2023-08-21T12:58:18;4.70;;;4.30;;
4980;SDS011;2507;50.392;7.482;2023-08-21T13:00:43;4.93;;;4.57;;
4980;SDS011;2507;50.392;7.482;2023-08-21T13:03:09;4.50;;;4.10;;
4980;SDS011;2507;50.392;7.482;2023-08-21T13:05:34;6.27;;;4.33;;
4980;SDS011;2507;50.392;7.482;2023-08-21T13:07:59;7.40;;;4.23;;
4980;SDS011;2507;50.392;7.482;2023-08-21T13:10:25;4.97;;;4.60;;
4980;SDS011;2507;50.392;7.482;2023-08-21T13:12:50;7.20;;;4.40;;
4980;SDS011;2507;50.392;7.482;2023-08-21T13:15:16;6.20;;;4.90;;
4980;SDS011;2507;50.392;7.482;2023-08-21T13:17:42;5.43;;;5.03;;
4980;SDS011;2507;50.392;7.482;2023-08-21T13:20:08;4.97;;;4.53;;
4980;SDS011;2507;50.392;7.482;2023-08-21T13:25:14;5.07;;;4.67;;
4980;SDS011;2507;50.392;7.482;2023-08-21T13:27:40;5.90;;;5.40;;
4980;SDS011;2507;50.392;7.482;2023-08-21T13:30:06;4.73;;;4.43;;
4980;SDS011;2507;50.392;7.482;2023-08-21T13:32:33;5.37;;;4.77;;
4980;SDS011;2507;50.392;7.482;2023-08-21T13:34:58;5.70;;;5.30;;
4980;SDS011;2507;50.392;7.482;2023-08-21T13:37:23;5.60;;;5.10;;
4980;SDS011;2507;50.392;7.482;2023-08-21T13:39:49;6.30;;;5.80;;
4980;SDS011;2507;50.392;7.482;2023-08-21T13:42:14;5.60;;;5.30;;
4980;SDS011;2507;50.392;7.482;2023-08-21T13:44:39;7.30;;;5.37;;
4980;SDS011;2507;50.392;7.482;2023-08-21T13:47:04;5.30;;;4.90;;
4980;SDS011;2507;50.392;7.482;2023-08-21T13:49:30;5.73;;;5.37;;
4980;SDS011;2507;50.392;7.482;2023-08-21T13:51:55;8.20;;;5.87;;
4980;SDS011;2507;50.392;7.482;2023-08-21T13:54:20;7.00;;;4.63;;
4980;SDS011;2507;50.392;7.482;2023-08-21T13:56:46;5.60;;;5.10;;
4980;SDS011;2507;50.392;7.482;2023-08-21T13:59:11;7.73;;;5.57;;
4980;SDS011;2507;50.392;7.482;2023-08-21T14:01:36;6.00;;;5.50;;
4980;SDS011;2507;50.392;7.482;2023-08-21T14:04:01;5.90;;;5.40;;
4980;SDS011;2507;50.392;7.482;2023-08-21T14:06:27;8.40;;;5.53;;
4980;SDS011;2507;50.392;7.482;2023-08-21T14:08:54;5.97;;;5.33;;
4980;SDS011;2507;50.392;7.482;2023-08-21T14:11:19;6.23;;;5.50;;
4980;SDS011;2507;50.392;7.482;2023-08-21T14:13:45;6.30;;;5.70;;
4980;SDS011;2507;50.392;7.482;2023-08-21T14:16:10;6.00;;;5.47;;
4980;SDS011;2507;50.392;7.482;2023-08-21T14:18:36;5.40;;;5.03;;
4980;SDS011;2507;50.392;7.482;2023-08-21T14:21:01;6.70;;;6.20;;
4980;SDS011;2507;50.392;7.482;2023-08-21T14:23:27;8.50;;;6.20;;
4980;SDS011;2507;50.392;7.482;2023-08-21T14:25:52;7.00;;;6.40;;
4980;SDS011;2507;50.392;7.482;2023-08-21T14:28:17;10.83;;;5.60;;
4980;SDS011;2507;50.392;7.482;2023-08-21T14:30:43;8.33;;;6.33;;
4980;SDS011;2507;50.392;7.482;2023-08-21T14:33:10;6.73;;;6.17;;
4980;SDS011;2507;50.392;7.482;2023-08-21T14:35:35;7.03;;;6.43;;
4980;SDS011;2507;50.392;7.482;2023-08-21T14:38:01;7.10;;;6.30;;
4980;SDS011;2507;50.392;7.482;2023-08-21T14:40:26;11.23;;;6.80;;
4980;SDS011;2507;50.392;7.482;2023-08-21T14:42:51;8.00;;;6.87;;
4980;SDS011;2507;50.392;7.482;2023-08-21T14:45:17;8.03;;;6.97;;
4980;SDS011;2507;50.392;7.482;2023-08-21T14:47:42;7.30;;;6.60;;
4980;SDS011;2507;50.392;7.482;2023-08-21T14:50:08;7.40;;;6.70;;
4980;SDS011;2507;50.392;7.482;2023-08-21T14:52:34;7.77;;;7.17;;
4980;SDS011;2507;50.392;7.482;2023-08-21T14:54:59;9.43;;;7.30;;
4980;SDS011;2507;50.392;7.482;2023-08-21T14:57:24;9.43;;;7.30;;